sensor_id;sensor_type;location;lat;lon;timestamp;P1;durP1;ratioP1;P2;durP2;ratioP2
47984;SDS011;33753;52.912;-7.342;2023-03-14T00:00:15;3.88;;;1.10;;
47984;SDS011;33753;52.912;-7.342;2023-03-14T00:02:44;7.75;;;1.77;;
47984;SDS011;33753;52.912;-7.342;2023-03-14T00:05:14;2.60;;;1.17;;
47984;SDS011;33753;52.912;-7.342;2023-03-14T00:07:42;5.75;;;1.00;;
47984;SDS011;33753;52.912;-7.342;2023-03-14T00:10:12;5.93;;;0.65;;
47984;SDS011;33753;52.912;-7.342;2023-03-14T00:12:43;4.15;;;0.93;;
47984;SDS011;33753;52.912;-7.342;2023-03-14T00:15:11;4.63;;;1.00;;
47984;SDS011;33753;52.912;-7.342;2023-03-14T00:17:42;7.38;;;0.93;;
47984;SDS011;33753;52.912;-7.342;2023-03-14T00:20:11;10.25;;;1.83;;
47984;SDS011;33753;52.912;-7.342;2023-03-14T00:22:41;7.07;;;1.60;;
47984;SDS011;33753;52.912;-7.342;2023-03-14T00:25:11;4.35;;;1.45;;
47984;SDS011;33753;52.912;-7.342;2023-03-14T00:27:44;7.45;;;1.00;;
47984;SDS011;33753;52.912;-7.342;2023-03-14T00:30:12;7.07;;;1.70;;
47984;SDS011;33753;52.912;-7.342;2023-03-14T00:32:41;5.60;;;1.35;;
47984;SDS011;33753;52.912;-7.342;2023-03-14T00:35:11;7.75;;;1.48;;
47984;SDS011;33753;52.912;-7.342;2023-03-14T00:37:40;7.47;;;1.85;;
47984;SDS011;33753;52.912;-7.342;2023-03-14T00:40:10;7.57;;;2.65;;
47984;SDS011;33753;52.912;-7.342;2023-03-14T00:42:39;9.20;;;1.67;;
47984;SDS011;33753;52.912;-7.342;2023-03-14T00:45:10;9.77;;;1.65;;
47984;SDS011;33753;52.912;-7.342;2023-03-14T00:47:39;6.68;;;1.23;;
47984;SDS011;33753;52.912;-7.342;2023-03-14T00:50:12;5.10;;;1.20;;
47984;SDS011;33753;52.912;-7.342;2023-03-14T00:52:40;4.00;;;0.95;;
47984;SDS011;33753;52.912;-7.342;2023-03-14T00:55:09;4.53;;;1.85;;
47984;SDS011;33753;52.912;-7.342;2023-03-14T00:57:38;6.43;;;1.33;;
47984;SDS011;33753;52.912;-7.342;2023-03-14T01:00:07;3.33;;;1.00;;
47984;SDS011;33753;52.912;-7.342;2023-03-14T01:02:40;12.93;;;2.25;;
47984;SDS011;33753;52.912;-7.342;2023-03-14T01:05:09;6.50;;;1.00;;
47984;SDS011;33753;52.912;-7.342;2023-03-14T01:07:38;11.18;;;1.38;;
47984;SDS011;33753;52.912;-7.342;2023-03-14T01:10:07;5.95;;;1.25;;
47984;SDS011;33753;52.912;-7.342;2023-03-14T01:12:37;6.00;;;1.58;;
47984;SDS011;33753;52.912;-7.342;2023-03-14T01:15:06;5.53;;;1.55;;
47984;SDS011;33753;52.912;-7.342;2023-03-14T01:17:36;7.50;;;1.55;;
47984;SDS011;33753;52.912;-7.342;2023-03-14T01:20:06;7.75;;;1.52;;
47984;SDS011;33753;52.912;-7.342;2023-03-14T01:22:37;5.88;;;1.13;;
47984;SDS011;33753;52.912;-7.342;2023-03-14T01:25:07;7.70;;;0.98;;
47984;SDS011;33753;52.912;-7.342;2023-03-14T01:27:36;7.70;;;1.45;;
47984;SDS011;33753;52.912;-7.342;2023-03-14T01:30:06;11.65;;;1.63;;
47984;SDS011;33753;52.912;-7.342;2023-03-14T01:32:36;12.30;;;1.35;;
47984;SDS011;33753;52.912;-7.342;2023-03-14T01:35:06;5.55;;;1.17;;
47984;SDS011;33753;52.912;-7.342;2023-03-14T01:37:35;12.05;;;1.35;;
47984;SDS011;33753;52.912;-7.342;2023-03-14T01:40:06;8.82;;;1.98;;
47984;SDS011;33753;52.912;-7.342;2023-03-14T01:42:37;5.60;;;1.50;;
47984;SDS011;33753;52.912;-7.342;2023-03-14T01:48:08;9.18;;;2.65;;
47984;SDS011;33753;52.912;-7.342;2023-03-14T01:50:37;7.18;;;1.80;;
47984;SDS011;33753;52.912;-7.342;2023-03-14T01:53:05;7.45;;;1.85;;
47984;SDS011;33753;52.912;-7.342;2023-03-14T01:55:34;8.27;;;1.35;;
47984;SDS011;33753;52.912;-7.342;2023-03-14T01:58:04;6.22;;;1.45;;
47984;SDS011;33753;52.912;-7.342;2023-03-14T02:00:33;6.18;;;1.42;;
47984;SDS011;33753;52.912;-7.342;2023-03-14T02:03:02;11.27;;;2.33;;
47984;SDS011;33753;52.912;-7.342;2023-03-14T02:05:38;11.40;;;2.30;;
47984;SDS011;33753;52.912;-7.342;2023-03-14T02:08:16;9.25;;;1.80;;
47984;SDS011;33753;52.912;-7.342;2023-03-14T02:10:50;7.07;;;1.40;;
47984;SDS011;33753;52.912;-7.342;2023-03-14T02:13:24;9.88;;;1.48;;
47984;SDS011;33753;52.912;-7.342;2023-03-14T02:16:02;8.65;;;1.73;;
47984;SDS011;33753;52.912;-7.342;2023-03-14T02:18:48;8.85;;;1.95;;
47984;SDS011;33753;52.912;-7.342;2023-03-14T02:21:41;8.45;;;2.15;;
47984;SDS011;33753;52.912;-7.342;2023-03-14T02:24:22;8.88;;;1.92;;
47984;SDS011;33753;52.912;-7.342;2023-03-14T02:27:03;6.45;;;1.35;;
47984;SDS011;33753;52.912;-7.342;2023-03-14T02:29:36;9.48;;;1.85;;
47984;SDS011;33753;52.912;-7.342;2023-03-14T02:32:13;14.63;;;2.17;;
47984;SDS011;33753;52.912;-7.342;2023-03-14T02:34:45;4.53;;;0.93;;
47984;SDS011;33753;52.912;-7.342;2023-03-14T02:37:16;3.40;;;1.38;;
47984;SDS011;33753;52.912;-7.342;2023-03-14T02:39:48;2.60;;;1.10;;
47984;SDS011;33753;52.912;-7.342;2023-03-14T02:42:19;6.57;;;1.70;;
47984;SDS011;33753;52.912;-7.342;2023-03-14T02:44:49;7.07;;;1.50;;
47984;SDS011;33753;52.912;-7.342;2023-03-14T02:47:21;3.50;;;1.20;;
47984;SDS011;33753;52.912;-7.342;2023-03-14T02:49:57;3.38;;;0.80;;
47984;SDS011;33753;52.912;-7.342;2023-03-14T02:52:29;3.67;;;0.95;;
47984;SDS011;33753;52.912;-7.342;2023-03-14T02:57:27;3.33;;;1.00;;
47984;SDS011;33753;52.912;-7.342;2023-03-14T02:59:57;4.18;;;1.17;;
47984;SDS011;33753;52.912;-7.342;2023-03-14T03:02:31;1.80;;;0.73;;
47984;SDS011;33753;52.912;-7.342;2023-03-14T03:04:59;1.90;;;0.70;;
47984;SDS011;33753;52.912;-7.342;2023-03-14T03:07:28;2.75;;;0.95;;
47984;SDS011;33753;52.912;-7.342;2023-03-14T03:09:57;3.50;;;1.02;;
47984;SDS011;33753;52.912;-7.342;2023-03-14T03:12:29;2.40;;;2.10;;
47984;SDS011;33753;52.912;-7.342;2023-03-14T03:14:58;1.52;;;0.50;;
47984;SDS011;33753;52.912;-7.342;2023-03-14T03:17:26;5.40;;;1.15;;
47984;SDS011;33753;52.912;-7.342;2023-03-14T03:19:55;2.05;;;0.93;;
47984;SDS011;33753;52.912;-7.342;2023-03-14T03:22:24;4.10;;;0.80;;
47984;SDS011;33753;52.912;-7.342;2023-03-14T03:24:52;4.45;;;1.05;;
47984;SDS011;33753;52.912;-7.342;2023-03-14T03:27:21;4.47;;;1.10;;
47984;SDS011;33753;52.912;-7.342;2023-03-14T03:29:51;1.88;;;0.63;;
47984;SDS011;33753;52.912;-7.342;2023-03-14T03:32:19;2.42;;;0.70;;
47984;SDS011;33753;52.912;-7.342;2023-03-14T03:34:49;3.10;;;0.70;;
47984;SDS011;33753;52.912;-7.342;2023-03-14T03:37:17;4.40;;;0.95;;
47984;SDS011;33753;52.912;-7.342;2023-03-14T03:39:46;5.00;;;0.90;;
47984;SDS011;33753;52.912;-7.342;2023-03-14T03:42:15;3.08;;;0.47;;
47984;SDS011;33753;52.912;-7.342;2023-03-14T03:44:43;4.60;;;0.90;;
47984;SDS011;33753;52.912;-7.342;2023-03-14T03:47:13;2.40;;;1.23;;
47984;SDS011;33753;52.912;-7.342;2023-03-14T03:49:42;2.45;;;0.80;;
47984;SDS011;33753;52.912;-7.342;2023-03-14T03:52:10;2.63;;;1.50;;
47984;SDS011;33753;52.912;-7.342;2023-03-14T03:54:39;4.47;;;0.95;;
47984;SDS011;33753;52.912;-7.342;2023-03-14T03:57:07;2.58;;;0.70;;
47984;SDS011;33753;52.912;-7.342;2023-03-14T03:59:36;4.82;;;1.10;;
47984;SDS011;33753;52.912;-7.342;2023-03-14T04:02:07;6.38;;;1.40;;
47984;SDS011;33753;52.912;-7.342;2023-03-14T04:04:37;3.75;;;0.90;;
47984;SDS011;33753;52.912;-7.342;2023-03-14T04:07:06;3.70;;;1.08;;
47984;SDS011;33753;52.912;-7.342;2023-03-14T04:09:37;3.80;;;1.10;;
47984;SDS011;33753;52.912;-7.342;2023-03-14T04:12:20;4.05;;;0.85;;
47984;SDS011;33753;52.912;-7.342;2023-03-14T04:14:58;4.68;;;1.08;;
47984;SDS011;33753;52.912;-7.342;2023-03-14T04:17:27;3.72;;;0.90;;
47984;SDS011;33753;52.912;-7.342;2023-03-14T04:19:57;3.72;;;1.00;;
47984;SDS011;33753;52.912;-7.342;2023-03-14T04:22:33;3.40;;;1.00;;
47984;SDS011;33753;52.912;-7.342;2023-03-14T04:25:02;5.25;;;1.00;;
47984;SDS011;33753;52.912;-7.342;2023-03-14T04:27:35;2.42;;;0.90;;
47984;SDS011;33753;52.912;-7.342;2023-03-14T04:30:09;2.78;;;0.85;;
47984;SDS011;33753;52.912;-7.342;2023-03-14T04:32:50;2.70;;;1.10;;
47984;SDS011;33753;52.912;-7.342;2023-03-14T04:35:22;1.75;;;1.20;;
47984;SDS011;33753;52.912;-7.342;2023-03-14T04:37:54;2.00;;;0.80;;
47984;SDS011;33753;52.912;-7.342;2023-03-14T04:40:23;4.10;;;0.63;;
47984;SDS011;33753;52.912;-7.342;2023-03-14T04:42:57;3.85;;;0.63;;
47984;SDS011;33753;52.912;-7.342;2023-03-14T04:45:26;3.17;;;0.93;;
47984;SDS011;33753;52.912;-7.342;2023-03-14T04:47:57;4.18;;;0.75;;
47984;SDS011;33753;52.912;-7.342;2023-03-14T04:50:27;2.78;;;0.75;;
47984;SDS011;33753;52.912;-7.342;2023-03-14T04:52:55;2.60;;;0.80;;
47984;SDS011;33753;52.912;-7.342;2023-03-14T04:55:24;3.47;;;0.98;;
47984;SDS011;33753;52.912;-7.342;2023-03-14T04:57:54;3.92;;;0.50;;
47984;SDS011;33753;52.912;-7.342;2023-03-14T05:00:23;5.43;;;1.10;;
47984;SDS011;33753;52.912;-7.342;2023-03-14T05:03:03;1.80;;;0.52;;
47984;SDS011;33753;52.912;-7.342;2023-03-14T05:05:58;4.00;;;0.80;;
47984;SDS011;33753;52.912;-7.342;2023-03-14T05:08:59;1.55;;;0.80;;
47984;SDS011;33753;52.912;-7.342;2023-03-14T05:11:46;1.63;;;0.50;;
47984;SDS011;33753;52.912;-7.342;2023-03-14T05:14:49;2.80;;;0.57;;
47984;SDS011;33753;52.912;-7.342;2023-03-14T05:17:24;2.28;;;0.60;;
47984;SDS011;33753;52.912;-7.342;2023-03-14T05:20:18;2.15;;;0.95;;
47984;SDS011;33753;52.912;-7.342;2023-03-14T05:23:04;2.83;;;0.57;;
47984;SDS011;33753;52.912;-7.342;2023-03-14T05:25:51;3.33;;;1.15;;
47984;SDS011;33753;52.912;-7.342;2023-03-14T05:28:54;1.60;;;0.55;;
47984;SDS011;33753;52.912;-7.342;2023-03-14T05:31:49;2.13;;;0.60;;
47984;SDS011;33753;52.912;-7.342;2023-03-14T05:34:40;3.25;;;0.43;;
47984;SDS011;33753;52.912;-7.342;2023-03-14T05:37:28;3.13;;;0.40;;
47984;SDS011;33753;52.912;-7.342;2023-03-14T05:40:17;2.90;;;0.70;;
47984;SDS011;33753;52.912;-7.342;2023-03-14T05:43:18;1.45;;;0.70;;
47984;SDS011;33753;52.912;-7.342;2023-03-14T05:46:06;1.60;;;0.75;;
47984;SDS011;33753;52.912;-7.342;2023-03-14T05:48:53;1.52;;;0.73;;
47984;SDS011;33753;52.912;-7.342;2023-03-14T05:51:42;2.03;;;0.50;;
47984;SDS011;33753;52.912;-7.342;2023-03-14T05:54:20;2.97;;;0.50;;
47984;SDS011;33753;52.912;-7.342;2023-03-14T05:57:08;2.13;;;0.63;;
47984;SDS011;33753;52.912;-7.342;2023-03-14T05:59:47;2.20;;;0.85;;
47984;SDS011;33753;52.912;-7.342;2023-03-14T06:02:36;3.40;;;0.47;;
47984;SDS011;33753;52.912;-7.342;2023-03-14T06:05:15;2.05;;;0.52;;
47984;SDS011;33753;52.912;-7.342;2023-03-14T06:07:44;1.70;;;0.60;;
47984;SDS011;33753;52.912;-7.342;2023-03-14T06:10:12;1.40;;;0.50;;
47984;SDS011;33753;52.912;-7.342;2023-03-14T06:12:42;3.10;;;0.73;;
47984;SDS011;33753;52.912;-7.342;2023-03-14T06:15:11;2.15;;;1.45;;
47984;SDS011;33753;52.912;-7.342;2023-03-14T06:17:41;2.08;;;1.40;;
47984;SDS011;33753;52.912;-7.342;2023-03-14T06:20:12;2.20;;;0.35;;
47984;SDS011;33753;52.912;-7.342;2023-03-14T06:22:40;1.67;;;0.43;;
47984;SDS011;33753;52.912;-7.342;2023-03-14T06:25:11;2.60;;;0.85;;
47984;SDS011;33753;52.912;-7.342;2023-03-14T06:27:41;1.30;;;0.57;;
47984;SDS011;33753;52.912;-7.342;2023-03-14T06:30:11;2.60;;;0.88;;
47984;SDS011;33753;52.912;-7.342;2023-03-14T06:32:39;2.85;;;0.50;;
47984;SDS011;33753;52.912;-7.342;2023-03-14T06:35:11;2.05;;;1.33;;
47984;SDS011;33753;52.912;-7.342;2023-03-14T06:37:41;2.97;;;0.98;;
47984;SDS011;33753;52.912;-7.342;2023-03-14T06:40:11;3.78;;;1.15;;
47984;SDS011;33753;52.912;-7.342;2023-03-14T06:42:55;3.55;;;0.80;;
47984;SDS011;33753;52.912;-7.342;2023-03-14T06:45:26;2.90;;;0.80;;
47984;SDS011;33753;52.912;-7.342;2023-03-14T06:47:57;2.17;;;0.57;;
47984;SDS011;33753;52.912;-7.342;2023-03-14T06:50:34;1.95;;;0.65;;
47984;SDS011;33753;52.912;-7.342;2023-03-14T06:53:03;2.83;;;0.65;;
47984;SDS011;33753;52.912;-7.342;2023-03-14T06:55:34;2.28;;;0.80;;
47984;SDS011;33753;52.912;-7.342;2023-03-14T06:58:04;2.25;;;0.60;;
47984;SDS011;33753;52.912;-7.342;2023-03-14T07:00:40;3.15;;;0.80;;
47984;SDS011;33753;52.912;-7.342;2023-03-14T07:03:10;5.53;;;0.50;;
47984;SDS011;33753;52.912;-7.342;2023-03-14T07:05:43;2.05;;;0.70;;
47984;SDS011;33753;52.912;-7.342;2023-03-14T07:08:12;1.95;;;0.65;;
47984;SDS011;33753;52.912;-7.342;2023-03-14T07:10:41;5.53;;;2.15;;
47984;SDS011;33753;52.912;-7.342;2023-03-14T07:13:11;4.13;;;0.70;;
47984;SDS011;33753;52.912;-7.342;2023-03-14T07:15:53;2.25;;;0.52;;
47984;SDS011;33753;52.912;-7.342;2023-03-14T07:18:22;4.40;;;1.27;;
47984;SDS011;33753;52.912;-7.342;2023-03-14T07:20:50;5.20;;;0.68;;
47984;SDS011;33753;52.912;-7.342;2023-03-14T07:23:19;4.78;;;0.52;;
47984;SDS011;33753;52.912;-7.342;2023-03-14T07:25:50;6.55;;;1.10;;
47984;SDS011;33753;52.912;-7.342;2023-03-14T07:28:24;5.97;;;1.52;;
47984;SDS011;33753;52.912;-7.342;2023-03-14T07:31:11;4.10;;;1.58;;
47984;SDS011;33753;52.912;-7.342;2023-03-14T07:33:39;4.15;;;1.42;;
47984;SDS011;33753;52.912;-7.342;2023-03-14T07:36:08;5.75;;;1.08;;
47984;SDS011;33753;52.912;-7.342;2023-03-14T07:38:40;3.65;;;0.90;;
47984;SDS011;33753;52.912;-7.342;2023-03-14T07:41:31;3.20;;;1.15;;
47984;SDS011;33753;52.912;-7.342;2023-03-14T07:44:20;8.07;;;1.35;;
47984;SDS011;33753;52.912;-7.342;2023-03-14T07:46:48;5.40;;;1.02;;
47984;SDS011;33753;52.912;-7.342;2023-03-14T07:49:16;4.47;;;1.70;;
47984;SDS011;33753;52.912;-7.342;2023-03-14T07:51:47;5.00;;;1.42;;
47984;SDS011;33753;52.912;-7.342;2023-03-14T07:54:15;7.18;;;0.90;;
47984;SDS011;33753;52.912;-7.342;2023-03-14T07:56:46;8.40;;;1.17;;
47984;SDS011;33753;52.912;-7.342;2023-03-14T07:59:15;5.95;;;1.98;;
47984;SDS011;33753;52.912;-7.342;2023-03-14T08:01:45;4.75;;;1.30;;
47984;SDS011;33753;52.912;-7.342;2023-03-14T08:04:14;4.35;;;0.85;;
47984;SDS011;33753;52.912;-7.342;2023-03-14T08:06:42;3.85;;;0.70;;
47984;SDS011;33753;52.912;-7.342;2023-03-14T08:09:10;4.88;;;1.45;;
47984;SDS011;33753;52.912;-7.342;2023-03-14T08:11:39;4.82;;;0.82;;
47984;SDS011;33753;52.912;-7.342;2023-03-14T08:14:07;2.70;;;1.05;;
47984;SDS011;33753;52.912;-7.342;2023-03-14T08:16:37;4.80;;;2.05;;
47984;SDS011;33753;52.912;-7.342;2023-03-14T08:19:08;5.65;;;1.10;;
47984;SDS011;33753;52.912;-7.342;2023-03-14T08:21:36;4.32;;;1.00;;
47984;SDS011;33753;52.912;-7.342;2023-03-14T08:24:05;2.90;;;0.68;;
47984;SDS011;33753;52.912;-7.342;2023-03-14T08:26:34;4.85;;;0.65;;
47984;SDS011;33753;52.912;-7.342;2023-03-14T08:29:02;4.75;;;1.52;;
47984;SDS011;33753;52.912;-7.342;2023-03-14T08:31:31;5.45;;;0.88;;
47984;SDS011;33753;52.912;-7.342;2023-03-14T08:33:59;3.47;;;0.63;;
47984;SDS011;33753;52.912;-7.342;2023-03-14T08:36:30;3.13;;;0.80;;
47984;SDS011;33753;52.912;-7.342;2023-03-14T08:38:59;5.40;;;0.68;;
47984;SDS011;33753;52.912;-7.342;2023-03-14T08:41:27;6.47;;;1.02;;
47984;SDS011;33753;52.912;-7.342;2023-03-14T08:43:56;11.98;;;1.05;;
47984;SDS011;33753;52.912;-7.342;2023-03-14T08:46:25;3.83;;;0.60;;
47984;SDS011;33753;52.912;-7.342;2023-03-14T08:51:21;7.60;;;0.90;;
47984;SDS011;33753;52.912;-7.342;2023-03-14T08:53:52;4.18;;;0.82;;
47984;SDS011;33753;52.912;-7.342;2023-03-14T08:56:20;4.03;;;0.73;;
47984;SDS011;33753;52.912;-7.342;2023-03-14T08:58:51;5.68;;;1.13;;
47984;SDS011;33753;52.912;-7.342;2023-03-14T09:03:50;6.28;;;1.05;;
47984;SDS011;33753;52.912;-7.342;2023-03-14T09:08:47;4.93;;;1.27;;
47984;SDS011;33753;52.912;-7.342;2023-03-14T09:13:45;6.00;;;1.35;;
47984;SDS011;33753;52.912;-7.342;2023-03-14T09:16:15;3.97;;;1.25;;
47984;SDS011;33753;52.912;-7.342;2023-03-14T09:23:41;6.68;;;1.95;;
47984;SDS011;33753;52.912;-7.342;2023-03-14T09:26:12;9.40;;;1.40;;
47984;SDS011;33753;52.912;-7.342;2023-03-14T09:28:42;5.22;;;1.45;;
47984;SDS011;33753;52.912;-7.342;2023-03-14T09:31:12;7.90;;;1.60;;
47984;SDS011;33753;52.912;-7.342;2023-03-14T09:33:41;6.60;;;1.20;;
47984;SDS011;33753;52.912;-7.342;2023-03-14T09:36:11;6.78;;;1.08;;
47984;SDS011;33753;52.912;-7.342;2023-03-14T09:38:41;6.75;;;1.00;;
47984;SDS011;33753;52.912;-7.342;2023-03-14T09:41:14;2.75;;;0.70;;
47984;SDS011;33753;52.912;-7.342;2023-03-14T09:43:47;4.07;;;0.68;;
47984;SDS011;33753;52.912;-7.342;2023-03-14T09:46:19;6.05;;;1.20;;
47984;SDS011;33753;52.912;-7.342;2023-03-14T09:48:49;3.78;;;0.77;;
47984;SDS011;33753;52.912;-7.342;2023-03-14T09:53:50;3.50;;;0.82;;
47984;SDS011;33753;52.912;-7.342;2023-03-14T09:56:19;3.47;;;0.90;;
47984;SDS011;33753;52.912;-7.342;2023-03-14T09:58:53;3.30;;;0.55;;
47984;SDS011;33753;52.912;-7.342;2023-03-14T10:01:25;6.82;;;1.00;;
47984;SDS011;33753;52.912;-7.342;2023-03-14T10:03:59;4.75;;;0.90;;
47984;SDS011;33753;52.912;-7.342;2023-03-14T10:06:31;2.20;;;0.63;;
47984;SDS011;33753;52.912;-7.342;2023-03-14T10:09:01;2.83;;;0.77;;
47984;SDS011;33753;52.912;-7.342;2023-03-14T10:11:32;5.10;;;0.73;;
47984;SDS011;33753;52.912;-7.342;2023-03-14T10:14:04;2.80;;;0.85;;
47984;SDS011;33753;52.912;-7.342;2023-03-14T10:16:35;4.43;;;1.02;;
47984;SDS011;33753;52.912;-7.342;2023-03-14T10:19:06;4.10;;;0.85;;
47984;SDS011;33753;52.912;-7.342;2023-03-14T10:21:37;5.68;;;0.68;;
47984;SDS011;33753;52.912;-7.342;2023-03-14T10:24:08;3.08;;;0.80;;
47984;SDS011;33753;52.912;-7.342;2023-03-14T10:26:47;3.10;;;0.65;;
47984;SDS011;33753;52.912;-7.342;2023-03-14T10:29:19;4.13;;;0.73;;
47984;SDS011;33753;52.912;-7.342;2023-03-14T10:31:53;2.70;;;0.60;;
47984;SDS011;33753;52.912;-7.342;2023-03-14T10:34:24;3.50;;;1.25;;
47984;SDS011;33753;52.912;-7.342;2023-03-14T10:36:54;3.60;;;1.10;;
47984;SDS011;33753;52.912;-7.342;2023-03-14T10:39:30;4.28;;;1.13;;
47984;SDS011;33753;52.912;-7.342;2023-03-14T10:42:12;5.45;;;1.67;;
47984;SDS011;33753;52.912;-7.342;2023-03-14T10:44:47;5.88;;;2.58;;
47984;SDS011;33753;52.912;-7.342;2023-03-14T10:47:21;2.75;;;0.52;;
47984;SDS011;33753;52.912;-7.342;2023-03-14T10:49:51;5.05;;;1.65;;
47984;SDS011;33753;52.912;-7.342;2023-03-14T10:52:20;3.95;;;1.58;;
47984;SDS011;33753;52.912;-7.342;2023-03-14T10:55:13;5.05;;;1.50;;
47984;SDS011;33753;52.912;-7.342;2023-03-14T10:57:42;3.13;;;0.77;;
47984;SDS011;33753;52.912;-7.342;2023-03-14T11:00:18;2.88;;;0.57;;
47984;SDS011;33753;52.912;-7.342;2023-03-14T11:02:55;3.95;;;0.85;;
47984;SDS011;33753;52.912;-7.342;2023-03-14T11:05:34;3.53;;;1.02;;
47984;SDS011;33753;52.912;-7.342;2023-03-14T11:08:07;3.72;;;0.57;;
47984;SDS011;33753;52.912;-7.342;2023-03-14T11:10:39;2.28;;;0.47;;
47984;SDS011;33753;52.912;-7.342;2023-03-14T11:13:15;2.78;;;1.27;;
47984;SDS011;33753;52.912;-7.342;2023-03-14T11:15:53;2.78;;;0.85;;
47984;SDS011;33753;52.912;-7.342;2023-03-14T11:18:44;3.75;;;1.30;;
47984;SDS011;33753;52.912;-7.342;2023-03-14T11:21:26;3.13;;;0.40;;
47984;SDS011;33753;52.912;-7.342;2023-03-14T11:24:03;2.20;;;0.65;;
47984;SDS011;33753;52.912;-7.342;2023-03-14T11:26:46;5.13;;;1.70;;
47984;SDS011;33753;52.912;-7.342;2023-03-14T11:29:20;3.30;;;1.27;;
47984;SDS011;33753;52.912;-7.342;2023-03-14T11:31:58;3.63;;;1.08;;
47984;SDS011;33753;52.912;-7.342;2023-03-14T11:34:33;3.30;;;0.75;;
47984;SDS011;33753;52.912;-7.342;2023-03-14T11:37:11;2.53;;;0.45;;
47984;SDS011;33753;52.912;-7.342;2023-03-14T11:39:47;2.55;;;0.60;;
47984;SDS011;33753;52.912;-7.342;2023-03-14T11:42:23;3.33;;;0.50;;
47984;SDS011;33753;52.912;-7.342;2023-03-14T11:44:54;2.50;;;0.40;;
47984;SDS011;33753;52.912;-7.342;2023-03-14T11:47:28;2.45;;;0.50;;
47984;SDS011;33753;52.912;-7.342;2023-03-14T11:50:02;2.75;;;0.40;;
47984;SDS011;33753;52.912;-7.342;2023-03-14T11:52:37;2.90;;;0.47;;
47984;SDS011;33753;52.912;-7.342;2023-03-14T11:55:11;6.30;;;0.70;;
47984;SDS011;33753;52.912;-7.342;2023-03-14T11:57:46;3.55;;;0.30;;
47984;SDS011;33753;52.912;-7.342;2023-03-14T12:00:18;2.00;;;0.22;;
47984;SDS011;33753;52.912;-7.342;2023-03-14T12:02:51;1.85;;;0.30;;
47984;SDS011;33753;52.912;-7.342;2023-03-14T12:05:35;1.40;;;0.30;;
47984;SDS011;33753;52.912;-7.342;2023-03-14T12:08:31;0.95;;;0.20;;
47984;SDS011;33753;52.912;-7.342;2023-03-14T12:11:09;1.98;;;0.35;;
47984;SDS011;33753;52.912;-7.342;2023-03-14T12:13:41;1.23;;;0.20;;
47984;SDS011;33753;52.912;-7.342;2023-03-14T12:16:27;0.40;;;0.20;;
47984;SDS011;33753;52.912;-7.342;2023-03-14T12:19:15;0.65;;;0.40;;
47984;SDS011;33753;52.912;-7.342;2023-03-14T12:21:54;1.13;;;0.32;;
47984;SDS011;33753;52.912;-7.342;2023-03-14T12:24:26;1.02;;;0.10;;
47984;SDS011;33753;52.912;-7.342;2023-03-14T12:26:59;2.42;;;0.52;;
47984;SDS011;33753;52.912;-7.342;2023-03-14T12:29:28;1.70;;;0.50;;
47984;SDS011;33753;52.912;-7.342;2023-03-14T12:32:08;1.15;;;0.25;;
47984;SDS011;33753;52.912;-7.342;2023-03-14T12:34:50;1.95;;;0.40;;
47984;SDS011;33753;52.912;-7.342;2023-03-14T12:37:22;1.73;;;0.17;;
47984;SDS011;33753;52.912;-7.342;2023-03-14T12:39:58;0.90;;;0.20;;
47984;SDS011;33753;52.912;-7.342;2023-03-14T12:42:37;1.15;;;0.25;;
47984;SDS011;33753;52.912;-7.342;2023-03-14T12:48:04;2.63;;;0.40;;
47984;SDS011;33753;52.912;-7.342;2023-03-14T12:50:42;1.45;;;0.43;;
47984;SDS011;33753;52.912;-7.342;2023-03-14T12:53:20;1.20;;;0.22;;
47984;SDS011;33753;52.912;-7.342;2023-03-14T12:56:20;1.08;;;0.20;;
47984;SDS011;33753;52.912;-7.342;2023-03-14T12:59:00;1.08;;;0.10;;
47984;SDS011;33753;52.912;-7.342;2023-03-14T13:01:53;0.10;;;0.00;;
47984;SDS011;33753;52.912;-7.342;2023-03-14T13:04:27;0.30;;;0.10;;
47984;SDS011;33753;52.912;-7.342;2023-03-14T13:07:10;0.00;;;0.00;;
47984;SDS011;33753;52.912;-7.342;2023-03-14T13:12:48;1.60;;;0.30;;
47984;SDS011;33753;52.912;-7.342;2023-03-14T13:15:29;0.75;;;0.13;;
47984;SDS011;33753;52.912;-7.342;2023-03-14T13:18:01;1.25;;;0.40;;
47984;SDS011;33753;52.912;-7.342;2023-03-14T13:20:32;0.32;;;0.10;;
47984;SDS011;33753;52.912;-7.342;2023-03-14T13:23:18;1.45;;;0.20;;
47984;SDS011;33753;52.912;-7.342;2023-03-14T13:25:48;0.88;;;0.20;;
47984;SDS011;33753;52.912;-7.342;2023-03-14T13:28:17;1.00;;;0.30;;
47984;SDS011;33753;52.912;-7.342;2023-03-14T13:30:46;1.60;;;0.60;;
47984;SDS011;33753;52.912;-7.342;2023-03-14T13:33:18;4.57;;;1.20;;
47984;SDS011;33753;52.912;-7.342;2023-03-14T13:35:49;1.23;;;0.65;;
47984;SDS011;33753;52.912;-7.342;2023-03-14T13:38:25;2.40;;;0.85;;
47984;SDS011;33753;52.912;-7.342;2023-03-14T13:40:55;1.83;;;0.45;;
47984;SDS011;33753;52.912;-7.342;2023-03-14T13:43:28;2.10;;;0.52;;
47984;SDS011;33753;52.912;-7.342;2023-03-14T13:46:01;1.45;;;0.52;;
47984;SDS011;33753;52.912;-7.342;2023-03-14T13:48:33;3.13;;;0.85;;
47984;SDS011;33753;52.912;-7.342;2023-03-14T13:51:07;2.45;;;0.40;;
47984;SDS011;33753;52.912;-7.342;2023-03-14T13:53:45;2.58;;;0.40;;
47984;SDS011;33753;52.912;-7.342;2023-03-14T13:56:15;1.92;;;0.68;;
47984;SDS011;33753;52.912;-7.342;2023-03-14T13:58:46;0.65;;;0.30;;
47984;SDS011;33753;52.912;-7.342;2023-03-14T14:01:15;1.00;;;0.22;;
47984;SDS011;33753;52.912;-7.342;2023-03-14T14:03:46;1.48;;;0.28;;
47984;SDS011;33753;52.912;-7.342;2023-03-14T14:09:11;0.82;;;0.20;;
47984;SDS011;33753;52.912;-7.342;2023-03-14T14:11:47;5.65;;;0.68;;
47984;SDS011;33753;52.912;-7.342;2023-03-14T14:14:39;2.72;;;0.75;;
47984;SDS011;33753;52.912;-7.342;2023-03-14T14:17:11;3.13;;;0.45;;
47984;SDS011;33753;52.912;-7.342;2023-03-14T14:19:42;1.17;;;0.40;;
47984;SDS011;33753;52.912;-7.342;2023-03-14T14:22:13;6.10;;;3.08;;
47984;SDS011;33753;52.912;-7.342;2023-03-14T14:24:44;5.60;;;2.13;;
47984;SDS011;33753;52.912;-7.342;2023-03-14T14:27:15;6.40;;;1.85;;
47984;SDS011;33753;52.912;-7.342;2023-03-14T14:29:55;3.42;;;1.30;;
47984;SDS011;33753;52.912;-7.342;2023-03-14T14:32:26;3.55;;;1.80;;
47984;SDS011;33753;52.912;-7.342;2023-03-14T14:34:56;3.53;;;1.23;;
47984;SDS011;33753;52.912;-7.342;2023-03-14T14:37:26;1.33;;;0.20;;
47984;SDS011;33753;52.912;-7.342;2023-03-14T14:39:58;5.03;;;1.58;;
47984;SDS011;33753;52.912;-7.342;2023-03-14T14:42:28;3.58;;;1.13;;
47984;SDS011;33753;52.912;-7.342;2023-03-14T14:44:59;5.18;;;2.30;;
47984;SDS011;33753;52.912;-7.342;2023-03-14T14:47:30;4.38;;;1.27;;
47984;SDS011;33753;52.912;-7.342;2023-03-14T14:50:00;2.53;;;1.08;;
47984;SDS011;33753;52.912;-7.342;2023-03-14T14:52:34;3.85;;;1.75;;
47984;SDS011;33753;52.912;-7.342;2023-03-14T14:55:13;6.70;;;2.63;;
47984;SDS011;33753;52.912;-7.342;2023-03-14T15:00:19;6.00;;;3.35;;
47984;SDS011;33753;52.912;-7.342;2023-03-14T15:02:50;3.30;;;1.20;;
47984;SDS011;33753;52.912;-7.342;2023-03-14T15:05:22;5.53;;;1.80;;
47984;SDS011;33753;52.912;-7.342;2023-03-14T15:07:52;3.25;;;1.10;;
47984;SDS011;33753;52.912;-7.342;2023-03-14T15:10:24;2.25;;;0.30;;
47984;SDS011;33753;52.912;-7.342;2023-03-14T15:12:53;3.72;;;0.45;;
47984;SDS011;33753;52.912;-7.342;2023-03-14T15:15:22;3.90;;;1.58;;
47984;SDS011;33753;52.912;-7.342;2023-03-14T15:20:19;3.35;;;1.15;;
47984;SDS011;33753;52.912;-7.342;2023-03-14T15:22:50;4.07;;;1.23;;
47984;SDS011;33753;52.912;-7.342;2023-03-14T15:25:18;2.22;;;0.63;;
47984;SDS011;33753;52.912;-7.342;2023-03-14T15:28:14;3.85;;;1.08;;
47984;SDS011;33753;52.912;-7.342;2023-03-14T15:30:46;4.20;;;1.42;;
47984;SDS011;33753;52.912;-7.342;2023-03-14T15:33:15;2.88;;;0.65;;
47984;SDS011;33753;52.912;-7.342;2023-03-14T15:35:45;3.90;;;0.57;;
47984;SDS011;33753;52.912;-7.342;2023-03-14T15:38:15;9.52;;;2.15;;
47984;SDS011;33753;52.912;-7.342;2023-03-14T15:40:48;5.30;;;2.28;;
47984;SDS011;33753;52.912;-7.342;2023-03-14T15:43:18;6.60;;;2.72;;
47984;SDS011;33753;52.912;-7.342;2023-03-14T15:45:47;7.40;;;2.97;;